• Join FlightAware (Why Join?)
  • Login
  • US Flag 
10:24AM EDT


 

Airport Tracker/Info


-or-


 

Live Flight TrackerFlight Track Log ✈ EJM840 ✈ 10-May-2013 ✈ KENW - KRFD

Flight Track Log - Related Links

Times and Time Zones

All times are in EDT time to prevent confusion due to time zone crossing. See the EJM840 flight status page for this flight to view local times or setup timezone preferences in your user account.

Time Position Orientation Groundspeed Altitude Reporting Facility
EDT Latitude Longitude Course Direction KTS MPH feet Rate Location/Type
12:32PM 42.6000 -87.9167 324° Northwest 143 165 1,400  Level KMKE
12:33PM 42.6167 -87.9333 324° Northwest 176 203 2,500 1,080 Climbing KMKE
12:34PM 42.6253 -88.0208 278° West 208 239 3,500 660 Climbing Chicago Center
12:35PM 42.6228 -88.0981 268° West 206 237 4,000 240 Climbing Chicago Center
12:36PM 42.6181 -88.1822 266° West 214 246 4,000  Level Chicago Center
12:37PM 42.6119 -88.2803 265° West 221 254 4,000  Level Chicago Center
12:38PM 42.6058 -88.3639 264° West 221 254 4,000  Level Chicago Center
12:39PM 42.6008 -88.4453 265° West 218 251 4,000  Level Chicago Center
12:40PM 42.5958 -88.5286 265° West 220 253 4,000  Level Chicago Center
12:41PM 42.5772 -88.6089 253° West 226 260 4,000  Level Chicago Center
12:42PM 42.5403 -88.6803 235° Southwest 229 264 4,000  Level Chicago Center
12:43PM 42.4975 -88.7661 236° Southwest 234 269 4,000  Level Chicago Center
12:44PM 42.4614 -88.8389 236° Southwest 233 268 4,000  Level Chicago Center
12:45PM 42.4125 -88.8853 215° Southwest 229 264 4,000  Level Chicago Center
12:46PM 42.3542 -88.9169 202° Southwest 226 260 4,000  Level Chicago Center
12:47PM 42.2967 -88.9433 199° South 220 253 4,000  Level Chicago Center
12:48PM 42.2278 -88.9744 198° South 222 255 4,000  Level Chicago Center
12:49PM 42.1700 -88.9986 197° South 219 252 4,000  Level Chicago Center
12:50PM 42.1097 -89.0108 189° South 219 252 4,000 -300 Level Chicago Center
12:51PM 42.0442 -89.0250 189° South 220 253 3,500 -780 Descending Chicago Center
12:52PM 42.0100 -89.0694 224° Southwest 222 255 2,400 -540 Descending Chicago Center
12:53PM 42.0456 -89.1108 319° Northwest 191 220 2,400 -60 Level Chicago Center
12:54PM 42.0972 -89.1047 North 181 208 2,300 -120 Descending Chicago Center